ACA914 LFPG-CYYZ
Flight info
| Callsign | ACA914 |
|---|---|
| Flight time | N/A |
| Altitude | 32000 |
| Route | ATREX DCT VESAN DCT RATUK DCT SOVAT L613 SANDY DCT OKSAW DCT TEWXI DCT LIPGO DCT REVNU DCT NETKI DCT RESNO/M084F320 DCT 55N020W 54N030W 52N040W 50N050W DCT ELSIR/N0492F320 N412A MIILS DCT VILRO DCT SAVEX Q806 TUKIR RAGID6 |
| Aircraft | B77W/H-SDE1E2E3FGHIJ2J3J4J5M1RWXY/LB1D1 |
Departure
| Time | 2026-05-08 06:05 |
|---|---|
| Airport | Charles de Gaulle International Airport (LFPG) |
Arrival
| Time | N/A |
|---|---|
| Airport | Toronto Pearson International Airport (CYYZ) |
| Time | Latitude | Longitude | Altitude | Speed | Heading |
|---|---|---|---|---|---|
| 2026-05-08 05:57 | 49.00123 | 2.57825 | 358 ft | 0 kts | 356° |
| 2026-05-08 05:58 | 49.00112 | 2.57826 | 365 ft | 3 kts | 356° |
| 2026-05-08 05:59 | 49.00089 | 2.57826 | 362 ft | 4 kts | 15° |
| 2026-05-08 05:59 | 49.00072 | 2.57815 | 364 ft | 4 kts | 54° |
| 2026-05-08 05:59 | 49.00064 | 2.57786 | 367 ft | 4 kts | 87° |
| 2026-05-08 05:59 | 49.00064 | 2.57746 | 365 ft | 3 kts | 87° |
| 2026-05-08 06:00 | 49.00063 | 2.57733 | 364 ft | 0 kts | 86° |
| 2026-05-08 06:01 | 49.00066 | 2.57789 | 367 ft | 15 kts | 86° |
| 2026-05-08 06:02 | 49.00081 | 2.58043 | 364 ft | 30 kts | 85° |
| 2026-05-08 06:02 | 49.00045 | 2.58347 | 362 ft | 30 kts | 108° |
| 2026-05-08 06:02 | 49.00033 | 2.58663 | 359 ft | 30 kts | 88° |
| 2026-05-08 06:02 | 49.00051 | 2.59007 | 364 ft | 38 kts | 82° |
| 2026-05-08 06:03 | 49.00074 | 2.59474 | 361 ft | 51 kts | 84° |
| 2026-05-08 06:03 | 49.00102 | 2.60003 | 365 ft | 40 kts | 87° |
| 2026-05-08 06:03 | 49.00012 | 2.60350 | 365 ft | 27 kts | 137° |
| 2026-05-08 06:03 | 48.99968 | 2.60380 | 363 ft | 0 kts | 170° |
| 2026-05-08 06:04 | 48.99965 | 2.60380 | 363 ft | 4 kts | 170° |
| 2026-05-08 06:04 | 48.99866 | 2.60360 | 367 ft | 20 kts | 210° |
| 2026-05-08 06:04 | 48.99832 | 2.60142 | 358 ft | 45 kts | 264° |
| 2026-05-08 06:04 | 48.99780 | 2.59210 | 357 ft | 131 kts | 265° |
| 2026-05-08 06:05 | 48.99678 | 2.57400 | 356 ft | 210 kts | 266° |
| 2026-05-08 06:05 | 48.99609 | 2.54970 | 1015 ft | 234 kts | 266° |
| 2026-05-08 06:05 | 48.99499 | 2.52513 | 1907 ft | 246 kts | 262° |
| 2026-05-08 06:05 | 48.99296 | 2.49875 | 2828 ft | 257 kts | 262° |
| 2026-05-08 06:06 | 48.99118 | 2.47145 | 3547 ft | 257 kts | 264° |
| 2026-05-08 06:06 | 48.98967 | 2.44428 | 4147 ft | 257 kts | 263° |
| 2026-05-08 06:06 | 48.98811 | 2.41717 | 4697 ft | 257 kts | 264° |
| 2026-05-08 06:06 | 48.98671 | 2.39051 | 5641 ft | 252 kts | 268° |
| 2026-05-08 06:07 | 48.98993 | 2.36503 | 6647 ft | 245 kts | 302° |
| 2026-05-08 06:07 | 49.00072 | 2.34481 | 7346 ft | 252 kts | 313° |
| 2026-05-08 06:07 | 49.01295 | 2.32519 | 7881 ft | 260 kts | 312° |
| 2026-05-08 06:07 | 49.02555 | 2.30493 | 8396 ft | 264 kts | 312° |
| 2026-05-08 06:08 | 49.03828 | 2.28445 | 8928 ft | 266 kts | 312° |
| 2026-05-08 06:08 | 49.04988 | 2.26279 | 9452 ft | 267 kts | 297° |
| 2026-05-08 06:08 | 49.05850 | 2.23746 | 9982 ft | 271 kts | 295° |
| 2026-05-08 06:08 | 49.06732 | 2.21124 | 10551 ft | 289 kts | 296° |
| 2026-05-08 06:09 | 49.07690 | 2.18309 | 11107 ft | 308 kts | 296° |
| 2026-05-08 06:09 | 49.08708 | 2.15306 | 11740 ft | 323 kts | 296° |
| 2026-05-08 06:09 | 49.09761 | 2.12211 | 12433 ft | 336 kts | 295° |
| 2026-05-08 06:09 | 49.10849 | 2.09008 | 13199 ft | 345 kts | 295° |
| 2026-05-08 06:10 | 49.11959 | 2.05735 | 14227 ft | 345 kts | 294° |
| 2026-05-08 06:10 | 49.13062 | 2.02472 | 15187 ft | 344 kts | 294° |
| 2026-05-08 06:10 | 49.14146 | 1.99259 | 16163 ft | 341 kts | 294° |
| 2026-05-08 06:10 | 49.15215 | 1.96096 | 17159 ft | 336 kts | 294° |
| 2026-05-08 06:11 | 49.16281 | 1.92930 | 18183 ft | 329 kts | 294° |
| 2026-05-08 06:11 | 49.17314 | 1.89847 | 19093 ft | 320 kts | 294° |
| 2026-05-08 06:11 | 49.18303 | 1.86905 | 20008 ft | 309 kts | 294° |
| 2026-05-08 06:11 | 49.19277 | 1.84009 | 20663 ft | 307 kts | 294° |
| 2026-05-08 06:12 | 49.20268 | 1.81055 | 20971 ft | 316 kts | 294° |
| 2026-05-08 06:12 | 49.21279 | 1.78028 | 21122 ft | 329 kts | 294° |
| 2026-05-08 06:12 | 49.22346 | 1.74835 | 21316 ft | 341 kts | 294° |
| 2026-05-08 06:12 | 49.23446 | 1.71541 | 21496 ft | 355 kts | 294° |
| 2026-05-08 06:13 | 49.24592 | 1.68127 | 21683 ft | 367 kts | 295° |
| 2026-05-08 06:13 | 49.25789 | 1.64562 | 21853 ft | 380 kts | 294° |
| 2026-05-08 06:13 | 49.27002 | 1.60935 | 22033 ft | 392 kts | 295° |
| 2026-05-08 06:13 | 49.28266 | 1.57145 | 22198 ft | 404 kts | 295° |
| 2026-05-08 06:14 | 49.29559 | 1.53247 | 22367 ft | 415 kts | 294° |
| 2026-05-08 06:14 | 49.30886 | 1.49236 | 22534 ft | 426 kts | 294° |
| 2026-05-08 06:14 | 49.32219 | 1.45206 | 22864 ft | 431 kts | 294° |
| 2026-05-08 06:14 | 49.33591 | 1.41069 | 23288 ft | 434 kts | 295° |
| 2026-05-08 06:15 | 49.34969 | 1.36903 | 23704 ft | 437 kts | 294° |
| 2026-05-08 06:15 | 49.36330 | 1.32768 | 24052 ft | 439 kts | 294° |
| 2026-05-08 06:15 | 49.37718 | 1.28552 | 24409 ft | 441 kts | 294° |
| 2026-05-08 06:15 | 49.39113 | 1.24319 | 24771 ft | 443 kts | 294° |
| 2026-05-08 06:16 | 49.40487 | 1.20143 | 25142 ft | 444 kts | 294° |
| 2026-05-08 06:16 | 49.41880 | 1.15896 | 25520 ft | 444 kts | 294° |
| 2026-05-08 06:16 | 49.43256 | 1.11690 | 26002 ft | 442 kts | 294° |
| 2026-05-08 06:16 | 49.44631 | 1.07469 | 26492 ft | 439 kts | 294° |
| 2026-05-08 06:17 | 49.47328 | 0.99149 | 27500 ft | 432 kts | 294° |
| 2026-05-08 06:17 | 49.48673 | 0.95013 | 28022 ft | 428 kts | 293° |
| 2026-05-08 06:17 | 49.49987 | 0.90960 | 28503 ft | 425 kts | 294° |
| 2026-05-08 06:18 | 49.51313 | 0.86870 | 28907 ft | 424 kts | 293° |
| 2026-05-08 06:18 | 49.52610 | 0.82856 | 29311 ft | 422 kts | 293° |
| 2026-05-08 06:18 | 49.53914 | 0.78804 | 29729 ft | 419 kts | 293° |
| 2026-05-08 06:18 | 49.55207 | 0.74776 | 30041 ft | 419 kts | 292° |
| 2026-05-08 06:19 | 49.56504 | 0.70739 | 30305 ft | 419 kts | 293° |
| 2026-05-08 06:19 | 49.57789 | 0.66755 | 30558 ft | 418 kts | 293° |
| 2026-05-08 06:19 | 49.59087 | 0.62720 | 30796 ft | 418 kts | 293° |
| 2026-05-08 06:19 | 49.60358 | 0.58748 | 31018 ft | 417 kts | 293° |
| 2026-05-08 06:20 | 49.61647 | 0.54713 | 31279 ft | 416 kts | 293° |
| 2026-05-08 06:20 | 49.62931 | 0.50693 | 31427 ft | 418 kts | 292° |
| 2026-05-08 06:20 | 49.64204 | 0.46692 | 31557 ft | 419 kts | 293° |
| 2026-05-08 06:20 | 49.65495 | 0.42626 | 31680 ft | 421 kts | 292° |
| 2026-05-08 06:21 | 49.66769 | 0.38592 | 31806 ft | 423 kts | 292° |
| 2026-05-08 06:21 | 49.68063 | 0.34494 | 31931 ft | 424 kts | 292° |
| 2026-05-08 06:21 | 49.70669 | 0.26245 | 32069 ft | 430 kts | 293° |
| 2026-05-08 06:22 | 49.73324 | 0.17869 | 32059 ft | 439 kts | 293° |
| 2026-05-08 06:22 | 49.76015 | 0.09278 | 32070 ft | 447 kts | 292° |
| 2026-05-08 06:23 | 49.78749 | 0.00548 | 32067 ft | 455 kts | 292° |
| 2026-05-08 06:23 | 49.81520 | -0.08314 | 32070 ft | 462 kts | 293° |
| 2026-05-08 06:24 | 49.84331 | -0.17340 | 32056 ft | 468 kts | 293° |
| 2026-05-08 06:24 | 49.87173 | -0.26523 | 32053 ft | 473 kts | 292° |
| 2026-05-08 06:25 | 49.89998 | -0.35720 | 32058 ft | 476 kts | 293° |
| 2026-05-08 06:25 | 49.92853 | -0.45008 | 32060 ft | 480 kts | 293° |
| 2026-05-08 06:26 | 49.95742 | -0.54430 | 32060 ft | 483 kts | 293° |
| 2026-05-08 06:26 | 49.98619 | -0.63861 | 32064 ft | 485 kts | 293° |
| 2026-05-08 06:27 | 50.01503 | -0.73356 | 32063 ft | 487 kts | 293° |
| 2026-05-08 06:27 | 50.04378 | -0.82869 | 32056 ft | 488 kts | 293° |
| 2026-05-08 06:28 | 50.07272 | -0.92450 | 32056 ft | 489 kts | 293° |
| 2026-05-08 06:28 | 50.10149 | -1.02018 | 32059 ft | 489 kts | 293° |
| 2026-05-08 06:29 | 50.13015 | -1.11614 | 32048 ft | 489 kts | 293° |
| 2026-05-08 06:29 | 50.15875 | -1.21243 | 32050 ft | 489 kts | 293° |
| 2026-05-08 06:30 | 50.18739 | -1.30883 | 32048 ft | 489 kts | 293° |
| 2026-05-08 06:30 | 50.21581 | -1.40509 | 32048 ft | 489 kts | 294° |
| 2026-05-08 06:31 | 50.24425 | -1.50174 | 32044 ft | 488 kts | 294° |
| 2026-05-08 06:31 | 50.27231 | -1.59768 | 32040 ft | 487 kts | 294° |
| 2026-05-08 06:32 | 50.30042 | -1.69370 | 32042 ft | 485 kts | 294° |
| 2026-05-08 06:32 | 50.32835 | -1.78960 | 32041 ft | 484 kts | 294° |
| 2026-05-08 06:33 | 50.35157 | -1.86956 | 32039 ft | 483 kts | 294° |
| 2026-05-08 06:33 | 50.37906 | -1.96514 | 32036 ft | 481 kts | 294° |
| 2026-05-08 06:34 | 50.40661 | -2.06090 | 32036 ft | 480 kts | 294° |
| 2026-05-08 06:34 | 50.43373 | -2.15590 | 32030 ft | 478 kts | 294° |
| 2026-05-08 06:35 | 50.46089 | -2.25121 | 32029 ft | 477 kts | 295° |
| 2026-05-08 06:35 | 50.48779 | -2.34564 | 32027 ft | 475 kts | 295° |
| 2026-05-08 06:36 | 50.51462 | -2.44052 | 32026 ft | 474 kts | 294° |
| 2026-05-08 06:36 | 50.54140 | -2.53548 | 32028 ft | 473 kts | 295° |
| 2026-05-08 06:37 | 50.56783 | -2.62951 | 32020 ft | 472 kts | 294° |
| 2026-05-08 06:37 | 50.59425 | -2.72431 | 32016 ft | 471 kts | 294° |
| 2026-05-08 06:38 | 50.62033 | -2.81812 | 32030 ft | 470 kts | 294° |
| 2026-05-08 06:38 | 50.64657 | -2.91267 | 32028 ft | 469 kts | 294° |
| 2026-05-08 06:39 | 50.67262 | -3.00664 | 32022 ft | 468 kts | 294° |
| 2026-05-08 06:39 | 50.69844 | -3.10076 | 32016 ft | 467 kts | 294° |
| 2026-05-08 06:40 | 50.72411 | -3.19454 | 32025 ft | 467 kts | 294° |
| 2026-05-08 06:40 | 50.74991 | -3.28895 | 32022 ft | 466 kts | 294° |
| 2026-05-08 06:41 | 50.77554 | -3.38320 | 32021 ft | 466 kts | 294° |
| 2026-05-08 06:41 | 50.80104 | -3.47705 | 32022 ft | 466 kts | 293° |
| 2026-05-08 06:42 | 50.82642 | -3.57163 | 32020 ft | 466 kts | 293° |
| 2026-05-08 06:42 | 50.85166 | -3.66576 | 32017 ft | 466 kts | 293° |
| 2026-05-08 06:43 | 50.87685 | -3.75990 | 32021 ft | 465 kts | 293° |
| 2026-05-08 06:43 | 50.90205 | -3.85449 | 32019 ft | 465 kts | 292° |
| 2026-05-08 06:44 | 50.92709 | -3.94903 | 32019 ft | 465 kts | 292° |
| 2026-05-08 06:44 | 50.95203 | -4.04330 | 32022 ft | 465 kts | 292° |
| 2026-05-08 06:45 | 50.97691 | -4.13802 | 32022 ft | 465 kts | 292° |
| 2026-05-08 06:45 | 51.00174 | -4.23276 | 32020 ft | 465 kts | 291° |
| 2026-05-08 06:46 | 51.02651 | -4.32755 | 32021 ft | 465 kts | 291° |
| 2026-05-08 06:46 | 51.05113 | -4.42241 | 32023 ft | 465 kts | 291° |
| 2026-05-08 06:47 | 51.07570 | -4.51758 | 32020 ft | 465 kts | 291° |
| 2026-05-08 06:47 | 51.10014 | -4.61230 | 32019 ft | 465 kts | 291° |
| 2026-05-08 06:48 | 51.12473 | -4.70798 | 32016 ft | 465 kts | 291° |
| 2026-05-08 06:48 | 51.14907 | -4.80329 | 32020 ft | 465 kts | 290° |
| 2026-05-08 06:49 | 51.17336 | -4.89910 | 32019 ft | 465 kts | 290° |
| 2026-05-08 06:49 | 51.19749 | -4.99430 | 32021 ft | 466 kts | 290° |
| 2026-05-08 06:50 | 51.22174 | -5.09038 | 32022 ft | 466 kts | 290° |
| 2026-05-08 06:50 | 51.24575 | -5.18605 | 32018 ft | 466 kts | 290° |
| 2026-05-08 06:51 | 51.26979 | -5.28221 | 32025 ft | 466 kts | 289° |
| 2026-05-08 06:51 | 51.29379 | -5.37875 | 32021 ft | 466 kts | 289° |
| 2026-05-08 06:52 | 51.31756 | -5.47455 | 32016 ft | 466 kts | 289° |
| 2026-05-08 06:52 | 51.34141 | -5.57103 | 32030 ft | 466 kts | 289° |
| 2026-05-08 06:53 | 51.36510 | -5.66768 | 32030 ft | 466 kts | 289° |
| 2026-05-08 06:53 | 51.38885 | -5.76485 | 32009 ft | 467 kts | 289° |
| 2026-05-08 06:54 | 51.41238 | -5.86136 | 32016 ft | 467 kts | 289° |
| 2026-05-08 06:54 | 51.43597 | -5.95866 | 32018 ft | 467 kts | 288° |
| 2026-05-08 06:55 | 51.45930 | -6.05557 | 32019 ft | 467 kts | 288° |
| 2026-05-08 06:55 | 51.48270 | -6.15261 | 32023 ft | 468 kts | 288° |
| 2026-05-08 06:56 | 51.50609 | -6.25012 | 32026 ft | 468 kts | 288° |
| 2026-05-08 06:56 | 51.52921 | -6.34741 | 32025 ft | 467 kts | 287° |
| 2026-05-08 06:57 | 51.55230 | -6.44501 | 32031 ft | 468 kts | 288° |
| 2026-05-08 06:57 | 51.57546 | -6.54306 | 32032 ft | 468 kts | 287° |
| 2026-05-08 06:58 | 51.59829 | -6.64032 | 32032 ft | 468 kts | 287° |
| 2026-05-08 06:58 | 51.62130 | -6.73858 | 32034 ft | 468 kts | 287° |
| 2026-05-08 06:59 | 51.64419 | -6.83683 | 32036 ft | 468 kts | 287° |
| 2026-05-08 06:59 | 51.66687 | -6.93458 | 32035 ft | 468 kts | 287° |
| 2026-05-08 07:00 | 51.68956 | -7.03328 | 32035 ft | 468 kts | 287° |
| 2026-05-08 07:00 | 51.71214 | -7.13125 | 32031 ft | 468 kts | 287° |
| 2026-05-08 07:01 | 51.73460 | -7.22963 | 32033 ft | 468 kts | 286° |
| 2026-05-08 07:01 | 51.75698 | -7.32804 | 32031 ft | 468 kts | 286° |
| 2026-05-08 07:02 | 51.77938 | -7.42735 | 32025 ft | 468 kts | 285° |
| 2026-05-08 07:02 | 51.80171 | -7.52617 | 32021 ft | 468 kts | 286° |
| 2026-05-08 07:03 | 51.82385 | -7.62474 | 32026 ft | 468 kts | 285° |
| 2026-05-08 07:03 | 51.84595 | -7.72392 | 32024 ft | 469 kts | 285° |
| 2026-05-08 07:04 | 51.86795 | -7.82279 | 32024 ft | 469 kts | 285° |
| 2026-05-08 07:04 | 51.89005 | -7.92256 | 32022 ft | 469 kts | 285° |
| 2026-05-08 07:05 | 51.91183 | -8.02167 | 32023 ft | 469 kts | 285° |
| 2026-05-08 07:05 | 51.93366 | -8.12151 | 32025 ft | 469 kts | 285° |
| 2026-05-08 07:06 | 51.95542 | -8.22125 | 32025 ft | 469 kts | 284° |
| 2026-05-08 07:06 | 51.97698 | -8.32073 | 32010 ft | 469 kts | 284° |
| 2026-05-08 07:07 | 51.99849 | -8.42033 | 32017 ft | 469 kts | 284° |
| 2026-05-08 07:07 | 52.02000 | -8.52048 | 32018 ft | 469 kts | 284° |
| 2026-05-08 07:08 | 52.04134 | -8.62022 | 32021 ft | 469 kts | 284° |
| 2026-05-08 07:08 | 52.06273 | -8.72095 | 32025 ft | 469 kts | 284° |
| 2026-05-08 07:09 | 52.08393 | -8.82064 | 32027 ft | 469 kts | 284° |
| 2026-05-08 07:09 | 52.10509 | -8.92137 | 32026 ft | 469 kts | 283° |
| 2026-05-08 07:10 | 52.12604 | -9.02146 | 32038 ft | 469 kts | 284° |
| 2026-05-08 07:10 | 52.14696 | -9.12150 | 32030 ft | 469 kts | 283° |
| 2026-05-08 07:11 | 52.16787 | -9.22261 | 32028 ft | 468 kts | 283° |
| 2026-05-08 07:11 | 52.18862 | -9.32302 | 32030 ft | 469 kts | 283° |
| 2026-05-08 07:12 | 52.20930 | -9.42395 | 32024 ft | 469 kts | 283° |
| 2026-05-08 07:12 | 52.22979 | -9.52442 | 32024 ft | 469 kts | 283° |
| 2026-05-08 07:13 | 52.25037 | -9.62570 | 32023 ft | 469 kts | 283° |
| 2026-05-08 07:13 | 52.27076 | -9.72618 | 32029 ft | 469 kts | 283° |
| 2026-05-08 07:14 | 52.29124 | -9.82775 | 32032 ft | 469 kts | 282° |
| 2026-05-08 07:14 | 52.31148 | -9.92858 | 32030 ft | 469 kts | 282° |
| 2026-05-08 07:15 | 52.33171 | -10.03016 | 32036 ft | 469 kts | 282° |
| 2026-05-08 07:15 | 52.35174 | -10.13158 | 32032 ft | 469 kts | 282° |
| 2026-05-08 07:16 | 52.37167 | -10.23269 | 32034 ft | 469 kts | 282° |
| 2026-05-08 07:16 | 52.39154 | -10.33417 | 32034 ft | 469 kts | 282° |
| 2026-05-08 07:17 | 52.41139 | -10.43582 | 32035 ft | 469 kts | 282° |
| 2026-05-08 07:17 | 52.43115 | -10.53750 | 32034 ft | 469 kts | 282° |
| 2026-05-08 07:18 | 52.45092 | -10.63992 | 32037 ft | 469 kts | 282° |
| 2026-05-08 07:18 | 52.47042 | -10.74192 | 32036 ft | 469 kts | 281° |
| 2026-05-08 07:19 | 52.48982 | -10.84370 | 32052 ft | 469 kts | 281° |
| 2026-05-08 07:19 | 52.50618 | -10.92947 | 32035 ft | 469 kts | 281° |
| 2026-05-08 07:20 | 52.52539 | -11.03134 | 32042 ft | 469 kts | 281° |
| 2026-05-08 07:20 | 52.54465 | -11.13401 | 32046 ft | 470 kts | 281° |
| 2026-05-08 07:21 | 52.56384 | -11.23646 | 32042 ft | 469 kts | 281° |
| 2026-05-08 07:21 | 52.58283 | -11.33863 | 32047 ft | 469 kts | 281° |
| 2026-05-08 07:22 | 52.60194 | -11.44173 | 32052 ft | 469 kts | 281° |
| 2026-05-08 07:22 | 52.62079 | -11.54404 | 32051 ft | 469 kts | 281° |
| 2026-05-08 07:23 | 52.63951 | -11.64652 | 32047 ft | 469 kts | 280° |
| 2026-05-08 07:23 | 52.65832 | -11.75000 | 32045 ft | 469 kts | 280° |
| 2026-05-08 07:24 | 52.67687 | -11.85259 | 32053 ft | 469 kts | 280° |
| 2026-05-08 07:24 | 52.69533 | -11.95525 | 32062 ft | 469 kts | 280° |
| 2026-05-08 07:25 | 52.71376 | -12.05876 | 32057 ft | 469 kts | 280° |
| 2026-05-08 07:26 | 52.74124 | -12.21372 | 32054 ft | 469 kts | 279° |
| 2026-05-08 07:26 | 52.75940 | -12.31685 | 32062 ft | 469 kts | 279° |
| 2026-05-08 07:27 | 52.77754 | -12.41994 | 32063 ft | 469 kts | 279° |
| 2026-05-08 07:27 | 52.79559 | -12.52377 | 32066 ft | 469 kts | 279° |
| 2026-05-08 07:28 | 52.81349 | -12.62711 | 32063 ft | 468 kts | 279° |
| 2026-05-08 07:28 | 52.83139 | -12.73090 | 32067 ft | 468 kts | 279° |
| 2026-05-08 07:29 | 52.84907 | -12.83418 | 32073 ft | 468 kts | 279° |
| 2026-05-08 07:29 | 52.86665 | -12.93800 | 32077 ft | 468 kts | 279° |
| 2026-05-08 07:30 | 52.88417 | -13.04147 | 32067 ft | 468 kts | 279° |
| 2026-05-08 07:30 | 52.90163 | -13.14525 | 32074 ft | 468 kts | 278° |
| 2026-05-08 07:31 | 52.91895 | -13.24872 | 32074 ft | 468 kts | 279° |
| 2026-05-08 07:31 | 52.93623 | -13.35252 | 32071 ft | 467 kts | 278° |
| 2026-05-08 07:32 | 52.95341 | -13.45707 | 32076 ft | 467 kts | 278° |
| 2026-05-08 07:32 | 52.97042 | -13.56097 | 32075 ft | 467 kts | 278° |
| 2026-05-08 07:33 | 52.98742 | -13.66476 | 32085 ft | 468 kts | 278° |
| 2026-05-08 07:33 | 53.00425 | -13.76874 | 32082 ft | 468 kts | 278° |
| 2026-05-08 07:34 | 53.02107 | -13.87302 | 32092 ft | 468 kts | 278° |
| 2026-05-08 07:34 | 53.03791 | -13.97788 | 32087 ft | 468 kts | 278° |
| 2026-05-08 07:35 | 53.05442 | -14.08218 | 32083 ft | 468 kts | 278° |
| 2026-05-08 07:35 | 53.07094 | -14.18681 | 32089 ft | 469 kts | 278° |
| 2026-05-08 07:36 | 53.08752 | -14.29202 | 32091 ft | 469 kts | 278° |
| 2026-05-08 07:36 | 53.10388 | -14.39682 | 32095 ft | 469 kts | 278° |
| 2026-05-08 07:37 | 53.12024 | -14.50220 | 32095 ft | 470 kts | 278° |
| 2026-05-08 07:37 | 53.13646 | -14.60743 | 32099 ft | 470 kts | 277° |
| 2026-05-08 07:38 | 53.15265 | -14.71298 | 32098 ft | 471 kts | 278° |
| 2026-05-08 07:38 | 53.16861 | -14.81766 | 32102 ft | 471 kts | 277° |
| 2026-05-08 07:39 | 53.18451 | -14.92343 | 32101 ft | 472 kts | 277° |
| 2026-05-08 07:39 | 53.20050 | -15.02963 | 32101 ft | 472 kts | 278° |
| 2026-05-08 07:40 | 53.21633 | -15.13575 | 32105 ft | 473 kts | 277° |
| 2026-05-08 07:40 | 53.23206 | -15.24251 | 32107 ft | 473 kts | 277° |
| 2026-05-08 07:41 | 53.24773 | -15.34895 | 32111 ft | 474 kts | 277° |
| 2026-05-08 07:41 | 53.26337 | -15.45620 | 32114 ft | 474 kts | 278° |
| 2026-05-08 07:42 | 53.27899 | -15.56319 | 32115 ft | 474 kts | 278° |
| 2026-05-08 07:42 | 53.29437 | -15.67005 | 32114 ft | 475 kts | 277° |
| 2026-05-08 07:43 | 53.30971 | -15.77754 | 32121 ft | 475 kts | 277° |
| 2026-05-08 07:43 | 53.32501 | -15.88536 | 32122 ft | 476 kts | 278° |
| 2026-05-08 07:44 | 53.34024 | -15.99318 | 32119 ft | 476 kts | 278° |
| 2026-05-08 07:44 | 53.35545 | -16.10131 | 32122 ft | 477 kts | 278° |
| 2026-05-08 07:45 | 53.37045 | -16.20919 | 32126 ft | 478 kts | 278° |
| 2026-05-08 07:45 | 53.38538 | -16.31752 | 32124 ft | 479 kts | 278° |
| 2026-05-08 07:46 | 53.40034 | -16.42686 | 32124 ft | 480 kts | 278° |
| 2026-05-08 07:46 | 53.41523 | -16.53555 | 32137 ft | 481 kts | 278° |
| 2026-05-08 07:47 | 53.43005 | -16.64503 | 32137 ft | 482 kts | 278° |
| 2026-05-08 07:47 | 53.44475 | -16.75478 | 32138 ft | 483 kts | 278° |
| 2026-05-08 07:48 | 53.45938 | -16.86482 | 32141 ft | 484 kts | 279° |
| 2026-05-08 07:48 | 53.47399 | -16.97544 | 32144 ft | 485 kts | 279° |
| 2026-05-08 07:49 | 53.48832 | -17.08549 | 32141 ft | 485 kts | 279° |
| 2026-05-08 07:49 | 53.50283 | -17.19680 | 32149 ft | 486 kts | 279° |
| 2026-05-08 07:50 | 53.51713 | -17.30770 | 32148 ft | 487 kts | 279° |
| 2026-05-08 07:50 | 53.53131 | -17.41885 | 32154 ft | 488 kts | 279° |
| 2026-05-08 07:51 | 53.54551 | -17.53060 | 32151 ft | 488 kts | 279° |
| 2026-05-08 07:51 | 53.55969 | -17.64253 | 32156 ft | 489 kts | 279° |
| 2026-05-08 07:52 | 53.57359 | -17.75400 | 32158 ft | 489 kts | 279° |
| 2026-05-08 07:52 | 53.58746 | -17.86602 | 32158 ft | 490 kts | 279° |
| 2026-05-08 07:53 | 53.60133 | -17.97880 | 32165 ft | 490 kts | 279° |
| 2026-05-08 07:53 | 53.61502 | -18.09127 | 32167 ft | 491 kts | 279° |
| 2026-05-08 07:54 | 53.62862 | -18.20351 | 32165 ft | 491 kts | 279° |
| 2026-05-08 07:54 | 53.64210 | -18.31627 | 32168 ft | 491 kts | 279° |
| 2026-05-08 07:55 | 53.65558 | -18.42957 | 32171 ft | 492 kts | 279° |
| 2026-05-08 07:55 | 53.66883 | -18.54223 | 32174 ft | 492 kts | 279° |
| 2026-05-08 07:56 | 53.68214 | -18.65576 | 32177 ft | 492 kts | 279° |
| 2026-05-08 07:56 | 53.69523 | -18.76866 | 32182 ft | 492 kts | 279° |
| 2026-05-08 07:57 | 53.70826 | -18.88207 | 32178 ft | 492 kts | 279° |
| 2026-05-08 07:57 | 53.72110 | -18.99500 | 32182 ft | 492 kts | 279° |
| 2026-05-08 07:58 | 53.73383 | -19.10806 | 32187 ft | 491 kts | 279° |
| 2026-05-08 07:58 | 53.74653 | -19.22134 | 32185 ft | 491 kts | 279° |
| 2026-05-08 07:59 | 53.75913 | -19.33544 | 32188 ft | 491 kts | 279° |
| 2026-05-08 07:59 | 53.77152 | -19.44860 | 32195 ft | 491 kts | 279° |
| 2026-05-08 08:00 | 53.78383 | -19.56212 | 32193 ft | 491 kts | 279° |
| 2026-05-08 08:00 | 53.79607 | -19.67568 | 32194 ft | 491 kts | 279° |
| 2026-05-08 08:01 | 53.80816 | -19.78899 | 32203 ft | 490 kts | 279° |
| 2026-05-08 08:01 | 53.82024 | -19.90262 | 32201 ft | 490 kts | 279° |
| 2026-05-08 08:02 | 53.83213 | -20.01586 | 32204 ft | 490 kts | 279° |
| 2026-05-08 08:02 | 53.84390 | -20.12973 | 32205 ft | 490 kts | 279° |
| 2026-05-08 08:03 | 53.85553 | -20.24321 | 32210 ft | 490 kts | 279° |
| 2026-05-08 08:03 | 53.86716 | -20.35709 | 32212 ft | 490 kts | 279° |
| 2026-05-08 08:04 | 53.87679 | -20.45237 | 32212 ft | 491 kts | 279° |
| 2026-05-08 08:04 | 53.88822 | -20.56668 | 32213 ft | 491 kts | 279° |
| 2026-05-08 08:05 | 53.89943 | -20.68053 | 32222 ft | 491 kts | 279° |
| 2026-05-08 08:05 | 53.91058 | -20.79511 | 32224 ft | 492 kts | 280° |
| 2026-05-08 08:06 | 53.92168 | -20.90925 | 32226 ft | 492 kts | 280° |
| 2026-05-08 08:06 | 53.93266 | -21.02344 | 32225 ft | 493 kts | 280° |
| 2026-05-08 08:07 | 53.94349 | -21.13872 | 32229 ft | 493 kts | 280° |
| 2026-05-08 08:07 | 53.95425 | -21.25362 | 32226 ft | 494 kts | 280° |
| 2026-05-08 08:08 | 53.96496 | -21.36864 | 32237 ft | 495 kts | 280° |
| 2026-05-08 08:08 | 53.97568 | -21.48444 | 32240 ft | 495 kts | 280° |
| 2026-05-08 08:09 | 53.98622 | -21.59999 | 32237 ft | 496 kts | 280° |
| 2026-05-08 08:09 | 53.99658 | -21.71622 | 32240 ft | 497 kts | 280° |
| 2026-05-08 08:10 | 54.00691 | -21.83229 | 32248 ft | 498 kts | 280° |
| 2026-05-08 08:10 | 54.01720 | -21.94902 | 32247 ft | 498 kts | 280° |
| 2026-05-08 08:11 | 54.02726 | -22.06540 | 32249 ft | 499 kts | 280° |
| 2026-05-08 08:11 | 54.03728 | -22.18243 | 32250 ft | 499 kts | 280° |
| 2026-05-08 08:12 | 54.04719 | -22.29902 | 32253 ft | 500 kts | 280° |
| 2026-05-08 08:12 | 54.05691 | -22.41574 | 32257 ft | 500 kts | 281° |
| 2026-05-08 08:13 | 54.06666 | -22.53329 | 32257 ft | 500 kts | 281° |
| 2026-05-08 08:13 | 54.07623 | -22.65040 | 32263 ft | 501 kts | 281° |
| 2026-05-08 08:14 | 54.08574 | -22.76785 | 32262 ft | 501 kts | 281° |
| 2026-05-08 08:14 | 54.09508 | -22.88503 | 32272 ft | 501 kts | 281° |
| 2026-05-08 08:15 | 54.10437 | -23.00329 | 32262 ft | 501 kts | 281° |
| 2026-05-08 08:15 | 54.11349 | -23.12063 | 32270 ft | 501 kts | 281° |
| 2026-05-08 08:16 | 54.12260 | -23.23891 | 32277 ft | 501 kts | 281° |
| 2026-05-08 08:16 | 54.13147 | -23.35625 | 32271 ft | 502 kts | 281° |
| 2026-05-08 08:17 | 54.14032 | -23.47410 | 32283 ft | 502 kts | 281° |
| 2026-05-08 08:17 | 54.14908 | -23.59256 | 32282 ft | 502 kts | 281° |